Iron Mountain, MI

6:58 PM CST on December 21, 2014 (GMT -0600)
East Kingsford | Change Station
CLOSE
Current Station
Personal Weather Station
Location: Kingsford, MI
Elevation: 1112 ft
Nearby Weather Stations

Elev 1112 ft 45.79 °N, 88.05 °W | Updated 14 minutes ago

Overcast
Overcast
33.4 °F
Feels Like 33 °F
N
1.0
Wind Variable Wind from West
Gusts 4.0 mph

Today
High -- | Low -- °F
--% Chance of Precip.
Yesterday
High -- | Low -- °F
Precip. -- in
7:30 AM 4:10 PM
Waning Crescent, 0% visible
Pressure 29.98 in
Visibility 4.0 miles
Clouds Overcast 500 ft
Windchill 33 °F
Dew Point 33 °F
Humidity 97%
Rainfall 0.00 in
Snow Depth Not available.
UV 0 out of 12
Pollen .10 out of 12
Air Quality Not available.
Flu Activity Not available.
METAR KIMT 220054Z AUTO 15009G19KT 4SM BR OVC005 01/M01 A2992 RMK AO2 SNE17 SLP150 P0000 T00061006

More Conditions Fewer Conditions

Pressure 29.98 in
Visibility 4.0 miles
Clouds Overcast 500 ft
Windchill 33 °F
Dew Point 33 °F
Humidity 97%
Rainfall 0.00 in
Snow Depth Not available.
UV 0 out of 12
Pollen .10 out of 12
Air Quality Not available.
Flu Activity Not available.
METAR KIMT 220054Z AUTO 15009G19KT 4SM BR OVC005 01/M01 A2992 RMK AO2 SNE17 SLP150 P0000 T00061006

More Conditions Fewer Conditions

10-Day Weather Forecast

Almanac

Astronomy

Dec. 21, 2014 Rise Set
Actual Time
Civil Twilight
Nautical Twilight
Astronomical Twilight
Moon
Length of Visible Light
Length of Day
Tomorrow will be .
, % of the Moon is Illuminated

Today's Extremes

State Highs State Lows

Community

WunderPhotos

Upload Photos

1,779,509 photos uploaded!

WunderBlogs® & News

Nearby

Air Quality

  Air Quality AQ Index Pollutant
Not available.

Snow Depth

Station Depth Elevation

Earthquake Activity

City Distance Mag. Time & Date
Minimum magnitude displayed is 2.5.

Coastal Water Temperatures

Place Temperature

Nearby Weather Stations